Felix-Klein-Gymnasium, Gttingen, 150m NN
Donnes mto: Actuelle Montag, 17.02.2020 02:15
Date Horaire Temp. E. Hum. E. P.atmo. Pluie Vent Direction Direction Ensoleilleme P. de rose Temp au vent Rafales
17.02.2020 02:15 8,4 C 85 % 1006,8 hPa 0,3 mm 9,2 km/h (2 Bft) SO 220 0 min 6,0 C 6,9 C 25,7 km/h (4 Bft)
17.02.2020 02:00 8,7 C 83 % 1006,6 hPa 0,3 mm 9,2 km/h (2 Bft) S-SO 205 0 min 6,0 C 7,2 C 32,2 km/h (5 Bft)
17.02.2020 01:45 8,9 C 82 % 1006,2 hPa 0,3 mm 11,9 km/h (2 Bft) SO 217 0 min 6,0 C 7,0 C 35,4 km/h (5 Bft)
17.02.2020 01:30 8,9 C 83 % 1005,9 hPa 0,3 mm 10,4 km/h (2 Bft) SO 236 0 min 6,2 C 7,2 C 29,0 km/h (5 Bft)
17.02.2020 01:15 8,8 C 85 % 1005,9 hPa 0,0 mm 3,8 km/h (1 Bft) O-SO 241 0 min 6,4 C 8,8 C 20,9 km/h (4 Bft)
17.02.2020 01:00 8,8 C 86 % 1006,1 hPa 0,0 mm 4,5 km/h (1 Bft) O-SO 243 0 min 6,6 C 8,8 C 24,1 km/h (4 Bft)
17.02.2020 00:45 8,7 C 86 % 1006,1 hPa 0,0 mm 5,0 km/h (1 Bft) O-SO 254 0 min 6,5 C 8,3 C 19,3 km/h (3 Bft)
17.02.2020 00:30 8,8 C 86 % 1005,9 hPa 0,0 mm 6,5 km/h (2 Bft) O 261 0 min 6,6 C 8,0 C 25,7 km/h (4 Bft)
17.02.2020 00:15 8,9 C 85 % 1005,7 hPa 0,0 mm 13,4 km/h (3 Bft) O-NO 295 0 min 6,5 C 6,8 C 43,5 km/h (6 Bft)
17.02.2020 00:00 9,2 C 83 % 1005,5 hPa 0,3 mm 15,1 km/h (3 Bft) S-SO 203 0 min 6,5 C 6,9 C 40,2 km/h (6 Bft)
16.02.2020 22:45 11,1 C 74 % 1003,5 hPa 0,0 mm 31,4 km/h (5 Bft) O-NO 297 0 min 6,6 C 11,1 C 62,8 km/h (8 Bft)
16.02.2020 22:30 15,7 C 55 % 1001,8 hPa 0,0 mm 26,6 km/h (4 Bft) O-NO 300 0 min 6,7 C 15,7 C 61,2 km/h (7 Bft)
16.02.2020 22:15 15,8 C 54 % 1000,7 hPa 0,0 mm 29,6 km/h (5 Bft) O-NO 290 0 min 6,5 C 15,8 C 62,8 km/h (8 Bft)
16.02.2020 22:00 15,8 C 53 % 1000,2 hPa 0,0 mm 32,7 km/h (5 Bft) E 94 0 min 6,2 C 15,8 C 69,2 km/h (8 Bft)
16.02.2020 21:45 15,8 C 53 % 1000,0 hPa 0,0 mm 27,0 km/h (4 Bft) S-SE 152 0 min 6,2 C 15,8 C 62,8 km/h (8 Bft)
16.02.2020 21:30 15,9 C 52 % 1000,1 hPa 0,0 mm 34,3 km/h (5 Bft) SO 215 0 min 6,1 C 15,9 C 77,2 km/h (9 Bft)
16.02.2020 21:15 16,1 C 51 % 1000,0 hPa 0,0 mm 34,5 km/h (5 Bft) SO 221 0 min 6,0 C 16,1 C 74,0 km/h (8 Bft)
16.02.2020 21:00 16,0 C 51 % 1000,0 hPa 0,0 mm 30,0 km/h (5 Bft) SO 227 0 min 5,9 C 16,0 C 70,8 km/h (8 Bft)
16.02.2020 20:45 16,0 C 51 % 999,5 hPa 0,0 mm 32,2 km/h (5 Bft) SO 224 0 min 5,9 C 16,0 C 69,2 km/h (8 Bft)
16.02.2020 20:30 16,2 C 50 % 999,6 hPa 0,0 mm 37,6 km/h (5 Bft) SO 233 0 min 5,8 C 16,2 C 72,4 km/h (8 Bft)
16.02.2020 20:15 16,2 C 49 % 999,6 hPa 0,0 mm 32,8 km/h (5 Bft) S-SO 209 0 min 5,5 C 16,2 C 80,5 km/h (9 Bft)
16.02.2020 20:00 16,1 C 50 % 1000,4 hPa 0,0 mm 32,3 km/h (5 Bft) S-SO 192 0 min 5,7 C 16,1 C 70,8 km/h (8 Bft)
16.02.2020 19:45 16,2 C 49 % 1000,2 hPa 0,0 mm 30,1 km/h (5 Bft) O-SO 252 0 min 5,5 C 16,2 C 57,9 km/h (7 Bft)
16.02.2020 19:30 16,6 C 48 % 1000,1 hPa 0,0 mm 36,9 km/h (5 Bft) S-SO 199 0 min 5,5 C 16,6 C 85,3 km/h (9 Bft)
16.02.2020 19:15 16,4 C 48 % 1000,4 hPa 0,0 mm 27,9 km/h (4 Bft) SO 232 0 min 5,4 C 16,4 C 61,2 km/h (7 Bft)
16.02.2020 19:00 16,3 C 48 % 1000,0 hPa 0,0 mm 28,9 km/h (5 Bft) SO 225 0 min 5,3 C 16,3 C 77,2 km/h (9 Bft)
16.02.2020 18:45 16,2 C 49 % 1000,1 hPa 0,0 mm 25,6 km/h (4 Bft) O-SO 240 0 min 5,5 C 16,2 C 61,2 km/h (7 Bft)
16.02.2020 18:30 16,3 C 49 % 1000,2 hPa 0,0 mm 28,9 km/h (5 Bft) S-SO 212 0 min 5,6 C 16,3 C 77,2 km/h (9 Bft)
16.02.2020 18:15 16,2 C 50 % 1000,1 hPa 0,0 mm 29,3 km/h (5 Bft) SO 224 0 min 5,8 C 16,2 C 74,0 km/h (8 Bft)
16.02.2020 18:00 16,2 C 50 % 1000,2 hPa 0,0 mm 27,8 km/h (4 Bft) SO 228 0 min 5,8 C 16,2 C 70,8 km/h (8 Bft)
16.02.2020 17:45 16,1 C 50 % 1000,4 hPa 0,0 mm 26,6 km/h (4 Bft) S-SO 202 0 min 5,7 C 16,1 C 66,0 km/h (8 Bft)
16.02.2020 17:30 16,1 C 50 % 1000,8 hPa 0,0 mm 26,2 km/h (4 Bft) S-SO 193 0 min 5,7 C 16,1 C 66,0 km/h (8 Bft)
16.02.2020 17:15 16,0 C 50 % 1000,8 hPa 0,0 mm 21,3 km/h (4 Bft) S-SO 210 0 min 5,6 C 16,0 C 77,2 km/h (9 Bft)
16.02.2020 17:00 15,9 C 51 % 1001,2 hPa 0,0 mm 19,5 km/h (3 Bft) S-SO 197 0 min 5,8 C 15,9 C 48,3 km/h (6 Bft)
16.02.2020 16:45 15,9 C 52 % 1001,5 hPa 0,0 mm 18,9 km/h (3 Bft) S-SO 192 0 min 6,1 C 15,9 C 56,3 km/h (7 Bft)
16.02.2020 16:30 15,9 C 52 % 1002,0 hPa 0,0 mm 20,3 km/h (4 Bft) SO 223 0 min 6,1 C 15,9 C 54,7 km/h (7 Bft)
16.02.2020 16:15 15,8 C 52 % 1002,0 hPa 0,0 mm 17,7 km/h (3 Bft) SO 214 0 min 6,0 C 15,8 C 53,1 km/h (7 Bft)
16.02.2020 16:00 15,9 C 52 % 1002,1 hPa 0,0 mm 17,6 km/h (3 Bft) SE 144 0 min 6,1 C 15,9 C 48,3 km/h (6 Bft)
16.02.2020 15:45 15,9 C 52 % 1002,3 hPa 0,0 mm 21,4 km/h (4 Bft) S 176 0 min 6,1 C 15,9 C 53,1 km/h (7 Bft)
16.02.2020 15:30 15,9 C 52 % 1002,7 hPa 0,0 mm 18,6 km/h (3 Bft) O-SO 238 0 min 6,1 C 15,9 C 46,7 km/h (6 Bft)
16.02.2020 15:15 15,9 C 51 % 1002,5 hPa 0,0 mm 21,2 km/h (4 Bft) S-SE 155 0 min 5,8 C 15,9 C 49,9 km/h (6 Bft)
16.02.2020 15:00 15,9 C 51 % 1002,4 hPa 0,0 mm 26,9 km/h (4 Bft) O-SO 250 0 min 5,8 C 15,9 C 59,5 km/h (7 Bft)
16.02.2020 14:45 16,0 C 51 % 1002,5 hPa 0,0 mm 23,6 km/h (4 Bft) S-SO 211 0 min 5,9 C 16,0 C 49,9 km/h (6 Bft)
16.02.2020 14:30 15,9 C 52 % 1002,5 hPa 0,0 mm 24,5 km/h (4 Bft) S 178 0 min 6,1 C 15,9 C 54,7 km/h (7 Bft)
16.02.2020 14:15 16,1 C 52 % 1002,9 hPa 0,0 mm 26,5 km/h (4 Bft) SO 219 0 min 6,2 C 16,1 C 54,7 km/h (7 Bft)
16.02.2020 14:00 16,1 C 54 % 1003,2 hPa 0,0 mm 22,2 km/h (4 Bft) SO 215 15 min 6,8 C 16,1 C 48,3 km/h (6 Bft)
16.02.2020 13:45 15,6 C 56 % 1003,3 hPa 0,0 mm 22,5 km/h (4 Bft) S-SO 209 0 min 6,9 C 15,6 C 56,3 km/h (7 Bft)
16.02.2020 13:30 15,4 C 58 % 1003,2 hPa 0,0 mm 25,2 km/h (4 Bft) S-SE 155 0 min 7,2 C 15,4 C 56,3 km/h (7 Bft)
16.02.2020 13:15 15,0 C 60 % 1004,0 hPa 0,0 mm 19,8 km/h (3 Bft) S 191 15 min 7,3 C 15,0 C 43,5 km/h (6 Bft)
16.02.2020 13:00 14,6 C 62 % 1004,4 hPa 0,0 mm 20,6 km/h (4 Bft) SO 232 0 min 7,4 C 14,6 C 53,1 km/h (7 Bft)
16.02.2020 12:45 14,1 C 63 % 1004,5 hPa 0,0 mm 24,5 km/h (4 Bft) S-SO 194 15 min 7,2 C 14,1 C 61,2 km/h (7 Bft)
16.02.2020 12:30 13,8 C 64 % 1005,0 hPa 0,0 mm 25,1 km/h (4 Bft) SO 223 0 min 7,1 C 13,8 C 57,9 km/h (7 Bft)
16.02.2020 12:15 13,6 C 66 % 1005,0 hPa 0,0 mm 24,5 km/h (4 Bft) S-SE 159 0 min 7,4 C 13,6 C 61,2 km/h (7 Bft)
16.02.2020 12:00 13,2 C 67 % 1005,5 hPa 0,0 mm 25,9 km/h (4 Bft) SO 217 0 min 7,2 C 13,2 C 66,0 km/h (8 Bft)
16.02.2020 11:45 13,5 C 67 % 1005,6 hPa 0,0 mm 22,6 km/h (4 Bft) S-SO 211 0 min 7,5 C 13,5 C 57,9 km/h (7 Bft)
16.02.2020 11:30 13,5 C 67 % 1005,8 hPa 0,0 mm 25,4 km/h (4 Bft) S 172 0 min 7,5 C 13,5 C 62,8 km/h (8 Bft)
16.02.2020 11:15 13,3 C 69 % 1006,0 hPa 0,0 mm 19,5 km/h (3 Bft) O-SO 248 0 min 7,7 C 13,3 C 51,5 km/h (7 Bft)
16.02.2020 11:00 13,1 C 69 % 1006,1 hPa 0,0 mm 22,9 km/h (4 Bft) N-NO 340 0 min 7,5 C 13,1 C 66,0 km/h (8 Bft)
16.02.2020 10:45 13,0 C 69 % 1006,2 hPa 0,0 mm 20,8 km/h (4 Bft) S-SO 209 0 min 7,4 C 13,0 C 45,1 km/h (6 Bft)
16.02.2020 10:30 12,9 C 69 % 1006,6 hPa 0,0 mm 22,9 km/h (4 Bft) SO 221 0 min 7,4 C 12,9 C 59,5 km/h (7 Bft)
16.02.2020 10:15 12,8 C 70 % 1006,8 hPa 0,0 mm 20,7 km/h (4 Bft) S 172 0 min 7,5 C 12,8 C 49,9 km/h (6 Bft)
16.02.2020 10:00 12,8 C 70 % 1006,5 hPa 0,0 mm 18,0 km/h (3 Bft) SO 232 0 min 7,5 C 12,8 C 49,9 km/h (6 Bft)
16.02.2020 09:45 12,7 C 70 % 1006,4 hPa 0,0 mm 19,6 km/h (3 Bft) S-SO 195 0 min 7,4 C 12,7 C 48,3 km/h (6 Bft)
16.02.2020 09:30 12,7 C 69 % 1006,3 hPa 0,0 mm 17,2 km/h (3 Bft) S-SE 160 0 min 7,2 C 12,7 C 43,5 km/h (6 Bft)
16.02.2020 09:15 12,5 C 68 % 1006,1 hPa 0,0 mm 16,8 km/h (3 Bft) S-SO 201 0 min 6,8 C 12,5 C 51,5 km/h (7 Bft)
16.02.2020 09:00 12,5 C 68 % 1006,6 hPa 0,0 mm 17,0 km/h (3 Bft) SO 228 0 min 6,8 C 12,5 C 48,3 km/h (6 Bft)
16.02.2020 08:45 12,4 C 68 % 1006,8 hPa 0,0 mm 19,7 km/h (3 Bft) SO 214 0 min 6,7 C 12,4 C 48,3 km/h (6 Bft)
16.02.2020 08:30 12,2 C 69 % 1007,0 hPa 0,0 mm 18,3 km/h (3 Bft) S-SO 205 0 min 6,7 C 12,2 C 51,5 km/h (7 Bft)
16.02.2020 08:15 12,1 C 70 % 1007,2 hPa 0,0 mm 17,2 km/h (3 Bft) SO 217 0 min 6,8 C 12,1 C 51,5 km/h (7 Bft)
16.02.2020 08:00 12,3 C 69 % 1007,3 hPa 0,0 mm 18,8 km/h (3 Bft) SE 145 0 min 6,8 C 12,3 C 67,6 km/h (8 Bft)
16.02.2020 07:45 12,6 C 67 % 1007,1 hPa 0,0 mm 20,5 km/h (4 Bft) SO 214 0 min 6,6 C 12,6 C 57,9 km/h (7 Bft)
16.02.2020 07:30 12,8 C 65 % 1007,1 hPa 0,0 mm 23,1 km/h (4 Bft) S 169 0 min 6,4 C 12,8 C 54,7 km/h (7 Bft)
16.02.2020 07:15 12,9 C 64 % 1006,9 hPa 0,0 mm 19,1 km/h (3 Bft) S-SO 211 0 min 6,3 C 12,9 C 46,7 km/h (6 Bft)
16.02.2020 07:00 12,8 C 64 % 1007,2 hPa 0,0 mm 17,2 km/h (3 Bft) SE 142 0 min 6,2 C 12,8 C 49,9 km/h (6 Bft)
16.02.2020 06:45 12,7 C 65 % 1007,2 hPa 0,0 mm 15,2 km/h (3 Bft) S 180 0 min 6,3 C 12,7 C 45,1 km/h (6 Bft)
16.02.2020 06:30 12,4 C 66 % 1007,4 hPa 0,0 mm 15,0 km/h (3 Bft) O 263 0 min 6,2 C 12,4 C 40,2 km/h (6 Bft)
16.02.2020 06:15 12,3 C 66 % 1007,7 hPa 0,0 mm 12,6 km/h (3 Bft) S-SO 213 0 min 6,1 C 12,3 C 40,2 km/h (6 Bft)
16.02.2020 06:00 12,2 C 67 % 1008,1 hPa 0,0 mm 9,8 km/h (2 Bft) SO 219 0 min 6,3 C 12,2 C 45,1 km/h (6 Bft)
16.02.2020 05:45 11,9 C 67 % 1008,4 hPa 0,0 mm 8,9 km/h (2 Bft) SE 146 0 min 6,0 C 11,9 C 29,0 km/h (5 Bft)
16.02.2020 05:30 11,7 C 67 % 1008,6 hPa 0,0 mm 6,8 km/h (2 Bft) S-SO 213 0 min 5,8 C 11,7 C 32,2 km/h (5 Bft)
16.02.2020 05:15 11,6 C 67 % 1008,9 hPa 0,0 mm 10,1 km/h (2 Bft) S-SO 202 0 min 5,7 C 11,6 C 35,4 km/h (5 Bft)
16.02.2020 05:00 11,4 C 67 % 1009,2 hPa 0,0 mm 9,4 km/h (2 Bft) S 183 0 min 5,5 C 11,4 C 32,2 km/h (5 Bft)
16.02.2020 04:45 11,4 C 66 % 1009,4 hPa 0,0 mm 13,4 km/h (3 Bft) E 92 0 min 5,3 C 11,4 C 35,4 km/h (5 Bft)
16.02.2020 04:30 11,1 C 68 % 1009,3 hPa 0,0 mm 11,3 km/h (2 Bft) SO 215 0 min 5,4 C 11,1 C 30,6 km/h (5 Bft)
16.02.2020 04:15 10,3 C 70 % 1009,3 hPa 0,0 mm 8,4 km/h (2 Bft) S 175 0 min 5,1 C 10,3 C 25,7 km/h (4 Bft)
16.02.2020 04:00 10,0 C 71 % 1009,2 hPa 0,0 mm 10,5 km/h (2 Bft) S 178 0 min 5,0 C 8,5 C 27,4 km/h (4 Bft)
16.02.2020 03:45 9,8 C 70 % 1009,2 hPa 0,0 mm 13,3 km/h (3 Bft) S-SE 154 0 min 4,6 C 7,9 C 24,1 km/h (4 Bft)
16.02.2020 03:30 9,7 C 70 % 1009,3 hPa 0,0 mm 12,8 km/h (3 Bft) SE 140 0 min 4,5 C 7,8 C 27,4 km/h (4 Bft)
16.02.2020 03:15 9,7 C 70 % 1009,3 hPa 0,0 mm 11,5 km/h (2 Bft) S-SE 162 0 min 4,5 C 8,0 C 27,4 km/h (4 Bft)
16.02.2020 03:00 9,5 C 70 % 1009,7 hPa 0,0 mm 7,9 km/h (2 Bft) S-SO 198 0 min 4,3 C 8,4 C 19,3 km/h (3 Bft)
_ Min-Heure 02:15 19:00 20:45 - 01:15 - - - 03:00 00:15 03:00
Minimum _ 8,4 C 48 % 999,5 hPa - 3,8 km/h (1 Bft) - - - 4,3 C 6,8 C 19,3 km/h (3 Bft)
_ Max-Heure 19:30 00:30 03:00 00:00 20:30 - - 12:45 11:15 19:30 19:30
Maximum _ 16,6 C 86 % 1009,7 hPa 0,3 mm 37,6 km/h
SO (5 Bft)
- - 15 min 7,7 C 16,6 C 85,3 km/h
S-SO (9 Bft)
Moyenne _ 13,0 C 64 % 1004,9 hPa #1,3 mm 19,2 km/h (3 Bft) SO - #0 min. 6,1 C 12,6 C 48,6 km/h (6 Bft)